New Pittsburg, Indiana
Current Conditions -  °F | °C
As of 4:35 AM on Monday 24 Nov 2014 (Local Time) from KVES Reporting Station
Overcast Overcast  
Wind Chill: 55°   Ceiling: 1900
Heat Index: 55°   Visibility: 10mi
Dew Point: 55°   Wind: 18mph
Humidity: 100%   Direction: 220°SW
Pressure: 29.25"   Gusts: 25mph
Location:  40.2091°N, 84.8536°W
Report Text: KVES 240935Z AUTO 22016G22KT 10SM BKN019 OVC023 13/13 A2925 RMK AO2
Loading
Personal Weather Stations






























Interactive Weather Map New forecast layout! Learn more

10-Day Weather Forecast

Advertisements
Track Severe Weather on mobile